PILOTS ONLINE: 325    ATC ONLINE: 33

FGSL

Malabo Airport

Location

IATA SSG
City Malabo
Country  Equatorial Guinea
Latitude 3° 45' 18" N
Longitude 8° 42' 31" E
Elevation 76 ft
Type Medium Airport

Map

Weather

METAR
2014/08/31 04:00
FGSL 310400Z 20002KT 9999 FEW008 SCT060 24/23 Q1012 NOSIG
TAF
2014/08/30 18:00
TAF FGSL 301700Z 3018/3124 24008KT 8000 SCT010 
      TEMPO 3020/3102 4000 RADZ BKN010 FEW018CB 
      TEMPO 3110/3116 4000 RADZ BKN008 FEW016CB

Runways

05/23 9647 ft / 151 ft

Outbound flights

Callsign Flying to Pilot ATD/STD ETA Aircraft

Inbound flights

Callsign Flying from Pilot ATD ETA Aircraft